Time;durP1;ratioP1;P1;durP2;ratioP2;P2;SDS_P1;SDS_P2;PMS_P1;PMS_P2;Temp;Humidity;BMP_temperature;BMP_pressure;BME280_temperature;BME280_humidity;BME280_pressure;Samples;Min_cycle;Max_cycle;Signal;HPM_P1;HPM_P2
2022/03/20 00:00:39;;;;;;;24.83;16.50;;;10.80;1.00;;;;;;5049439;28;20036;-79
2022/03/20 00:03:07;;;;;;;28.52;16.70;;;10.90;1.00;;;;;;5049766;28;20037;-78
2022/03/20 00:05:34;;;;;;;26.27;15.93;;;10.90;1.00;;;;;;5051514;28;20025;-79
2022/03/20 00:08:01;;;;;;;25.00;16.58;;;10.90;1.00;;;;;;5053302;28;20024;-78
2022/03/20 00:10:27;;;;;;;24.13;16.13;;;10.90;1.00;;;;;;5050931;28;20025;-79
2022/03/20 00:12:53;;;;;;;24.85;15.57;;;11.00;1.00;;;;;;5050837;28;20032;-78
2022/03/20 00:15:18;;;;;;;21.73;15.13;;;10.90;1.00;;;;;;5050942;28;20033;-78
2022/03/20 00:17:44;;;;;;;23.73;15.02;;;11.00;1.00;;;;;;5050844;28;20094;-79
2022/03/20 00:20:10;;;;;;;19.92;14.00;;;11.00;1.00;;;;;;5053016;28;20178;-79
2022/03/20 00:22:37;;;;;;;23.38;15.40;;;11.10;1.00;;;;;;5051039;28;20037;-78
2022/03/20 00:25:03;;;;;;;21.98;14.23;;;11.00;1.00;;;;;;5050803;28;20032;-78
2022/03/20 00:27:29;;;;;;;19.25;13.68;;;10.90;1.00;;;;;;5050521;28;20500;-79
2022/03/20 00:29:55;;;;;;;22.40;14.25;;;11.00;1.00;;;;;;5050536;28;20029;-79
2022/03/20 00:32:20;;;;;;;21.77;13.68;;;11.00;1.00;;;;;;5051839;28;20045;-78
2022/03/20 00:34:46;;;;;;;22.15;14.43;;;11.00;1.00;;;;;;5051468;28;20393;-79
2022/03/20 00:37:12;;;;;;;19.48;13.60;;;11.00;1.00;;;;;;5050933;28;20029;-78
2022/03/20 00:39:37;;;;;;;23.10;13.68;;;10.90;1.00;;;;;;5049014;28;20481;-78
2022/03/20 00:42:04;;;;;;;20.60;13.32;;;10.90;1.00;;;;;;5049032;28;20026;-79
2022/03/20 00:44:31;;;;;;;19.58;13.45;;;11.00;1.00;;;;;;5050575;28;20047;-78
2022/03/20 00:46:57;;;;;;;19.63;13.32;;;10.90;1.00;;;;;;5050166;28;20036;-78
2022/03/20 00:49:22;;;;;;;24.52;12.85;;;10.90;1.00;;;;;;5050486;28;20025;-79
2022/03/20 00:51:48;;;;;;;18.20;12.65;;;10.90;1.00;;;;;;5050148;28;20032;-78
2022/03/20 00:54:14;;;;;;;17.08;11.82;;;10.80;1.00;;;;;;5050607;28;20033;-78
2022/03/20 00:56:39;;;;;;;21.70;11.48;;;10.80;1.00;;;;;;5050549;28;20435;-79
2022/03/20 00:59:05;;;;;;;17.65;11.90;;;10.80;1.00;;;;;;5052173;28;20040;-78
2022/03/20 01:01:32;;;;;;;18.15;11.50;;;10.90;1.00;;;;;;5049568;28;20039;-79
2022/03/20 01:03:57;;;;;;;18.88;11.82;;;10.90;1.00;;;;;;5050262;28;20017;-79
2022/03/20 01:06:23;;;;;;;16.77;11.80;;;10.80;1.00;;;;;;5050129;28;20455;-79
2022/03/20 01:08:49;;;;;;;13.93;10.85;;;10.90;1.00;;;;;;5050184;28;20568;-78
2022/03/20 01:11:15;;;;;;;19.38;11.40;;;10.80;1.00;;;;;;5052156;28;20100;-78
2022/03/20 01:13:42;;;;;;;16.17;10.60;;;10.90;1.00;;;;;;5049672;28;20033;-78
2022/03/20 01:16:07;;;;;;;16.05;11.63;;;10.90;1.00;;;;;;5049220;28;20033;-79
2022/03/20 01:18:34;;;;;;;17.02;10.70;;;10.90;1.00;;;;;;5048537;28;20393;-79
2022/03/20 01:20:59;;;;;;;21.17;11.35;;;10.90;1.00;;;;;;5048477;28;20120;-78
2022/03/20 01:23:25;;;;;;;16.10;11.07;;;11.00;1.00;;;;;;5051063;28;20108;-79
2022/03/20 01:25:52;;;;;;;18.80;11.05;;;11.00;1.00;;;;;;5050766;28;20036;-78
2022/03/20 01:28:19;;;;;;;16.80;10.95;;;11.10;1.00;;;;;;5049574;28;20393;-78
2022/03/20 01:30:47;;;;;;;17.63;10.63;;;11.00;1.00;;;;;;5049491;28;20039;-79
2022/03/20 01:33:16;;;;;;;16.02;11.15;;;11.00;1.00;;;;;;5049405;28;20045;-79
2022/03/20 01:35:42;;;;;;;16.25;10.73;;;11.10;1.00;;;;;;5049355;28;20029;-78
2022/03/20 01:38:08;;;;;;;15.07;10.10;;;11.10;1.00;;;;;;5051585;28;20021;-79
2022/03/20 01:40:34;;;;;;;15.13;10.95;;;11.10;1.00;;;;;;5049267;28;20033;-79
2022/03/20 01:43:00;;;;;;;14.85;10.57;;;11.10;1.00;;;;;;5049752;28;20024;-79
2022/03/20 01:45:26;;;;;;;14.20;10.63;;;11.10;1.00;;;;;;5048989;28;20083;-79
2022/03/20 01:47:53;;;;;;;15.73;11.30;;;11.10;1.00;;;;;;5049754;28;20043;-78
2022/03/20 01:50:24;;;;;;;19.33;11.13;;;11.10;1.00;;;;;;5051100;28;20051;-79
2022/03/20 01:52:53;;;;;;;13.82;10.07;;;11.20;1.00;;;;;;5050219;28;20392;-79
2022/03/20 01:55:21;;;;;;;19.58;11.00;;;11.60;1.00;;;;;;5049109;28;20048;-78
2022/03/20 01:57:47;;;;;;;18.02;10.88;;;11.20;1.00;;;;;;5047589;28;20047;-79
2022/03/20 02:00:16;;;;;;;18.83;10.77;;;11.30;1.00;;;;;;5047805;28;20082;-78
2022/03/20 02:02:41;;;;;;;16.83;10.35;;;11.20;1.00;;;;;;5049706;28;20047;-78
2022/03/20 02:05:11;;;;;;;18.63;10.65;;;11.20;1.00;;;;;;5051419;28;20481;-78
2022/03/20 02:07:38;;;;;;;17.13;11.23;;;11.20;1.00;;;;;;5049127;28;20036;-78
2022/03/20 02:10:05;;;;;;;16.60;10.13;;;11.10;1.00;;;;;;5048861;28;20040;-78
2022/03/20 02:12:31;;;;;;;14.63;10.60;;;11.20;1.00;;;;;;5049092;28;20013;-79
2022/03/20 02:15:07;;;;;;;17.70;10.90;;;11.20;1.00;;;;;;5049102;28;20087;-78
2022/03/20 02:17:34;;;;;;;19.58;10.43;;;11.10;1.00;;;;;;5049343;28;20067;-78
2022/03/20 02:20:03;;;;;;;22.02;11.00;;;11.10;1.00;;;;;;5051099;28;20119;-78
2022/03/20 02:22:30;;;;;;;17.95;10.73;;;11.00;1.00;;;;;;5049070;28;20075;-79
2022/03/20 02:24:56;;;;;;;15.75;10.75;;;11.00;1.00;;;;;;5049296;28;20041;-78
2022/03/20 02:27:24;;;;;;;16.17;10.65;;;11.00;1.00;;;;;;5049230;28;20592;-79
2022/03/20 02:29:49;;;;;;;19.63;11.27;;;11.00;1.00;;;;;;5048535;28;20030;-79
2022/03/20 02:32:17;;;;;;;14.73;10.35;;;10.90;1.00;;;;;;5051315;28;20048;-79
2022/03/20 02:34:45;;;;;;;15.82;10.35;;;10.90;1.00;;;;;;5047637;28;20029;-78
2022/03/20 02:37:11;;;;;;;15.63;10.48;;;10.90;1.00;;;;;;5047357;28;20071;-79
2022/03/20 02:39:37;;;;;;;20.33;10.52;;;10.80;1.00;;;;;;5047533;28;20486;-78
2022/03/20 02:42:07;;;;;;;13.82;10.23;;;10.90;1.00;;;;;;5048942;28;20037;-79
2022/03/20 02:45:05;;;;;;;15.07;10.45;;;10.80;1.00;;;;;;5049144;28;20124;-79
2022/03/20 02:47:34;;;;;;;16.55;10.77;;;10.80;1.00;;;;;;5049322;28;20109;-79
2022/03/20 02:50:09;;;;;;;16.10;11.27;;;10.80;1.00;;;;;;5052785;28;20039;-79
2022/03/20 02:52:58;;;;;;;16.17;10.27;;;10.80;1.00;;;;;;5052411;28;20396;-78
2022/03/20 02:55:28;;;;;;;16.30;10.57;;;10.80;1.00;;;;;;5053685;28;20036;-79
2022/03/20 02:57:56;;;;;;;18.60;10.35;;;10.80;1.00;;;;;;5051777;28;20063;-79
2022/03/20 03:00:26;;;;;;;19.33;11.18;;;10.80;1.00;;;;;;5052271;28;20021;-78
2022/03/20 03:02:54;;;;;;;18.50;10.27;;;10.70;1.00;;;;;;5053274;28;20379;-79
2022/03/20 03:05:21;;;;;;;15.13;10.05;;;10.70;1.00;;;;;;5054374;28;20396;-79
2022/03/20 03:13:21;;;;;;;18.13;10.13;;;10.60;1.00;;;;;;5051949;28;20043;-78
2022/03/20 03:15:46;;;;;;;18.30;10.55;;;10.60;1.00;;;;;;5050556;28;20028;-80
2022/03/20 03:18:12;;;;;;;15.00;10.18;;;10.80;1.00;;;;;;5050669;28;20678;-79
2022/03/20 03:20:38;;;;;;;16.63;10.25;;;10.50;1.00;;;;;;5052918;28;20076;-79
2022/03/20 03:23:04;;;;;;;18.05;10.05;;;10.50;1.00;;;;;;5053972;28;20100;-79
2022/03/20 03:25:37;;;;;;;15.43;9.75;;;10.80;1.00;;;;;;5051614;28;20068;-79
2022/03/20 03:28:04;;;;;;;17.10;10.50;;;10.50;1.00;;;;;;5051544;28;20446;-79
2022/03/20 03:30:30;;;;;;;15.25;9.75;;;10.50;1.00;;;;;;5051955;28;20036;-79
2022/03/20 03:32:56;;;;;;;16.33;10.17;;;10.50;1.00;;;;;;5051535;28;20721;-79
2022/03/20 03:38:06;;;;;;;15.45;9.18;;;10.40;1.00;;;;;;5054399;28;20039;-78
2022/03/20 03:40:32;;;;;;;18.35;10.07;;;10.40;1.00;;;;;;5051105;28;20400;-78
2022/03/20 03:42:58;;;;;;;12.50;9.43;;;10.40;1.00;;;;;;5051884;28;20565;-78
2022/03/20 03:45:24;;;;;;;14.82;10.00;;;10.40;1.00;;;;;;5051412;28;20028;-78
2022/03/20 03:47:52;;;;;;;13.98;9.18;;;10.30;1.00;;;;;;5051995;28;20100;-78
2022/03/20 03:50:19;;;;;;;14.98;10.07;;;10.50;1.00;;;;;;5054381;28;20078;-79
2022/03/20 03:52:45;;;;;;;15.50;9.20;;;10.20;1.00;;;;;;5051721;28;20020;-78
2022/03/20 03:55:10;;;;;;;20.60;9.68;;;10.20;1.00;;;;;;5049357;28;20627;-78
2022/03/20 03:57:36;;;;;;;17.45;9.73;;;10.20;1.00;;;;;;5050356;28;20029;-79
2022/03/20 04:00:03;;;;;;;14.63;9.35;;;10.10;1.00;;;;;;5050617;28;20127;-79
2022/03/20 04:02:29;;;;;;;14.00;9.40;;;10.10;1.00;;;;;;5052252;28;20021;-79
2022/03/20 04:04:55;;;;;;;14.95;9.40;;;10.20;1.00;;;;;;5053091;28;20033;-78
2022/03/20 04:07:21;;;;;;;13.50;9.38;;;10.00;1.00;;;;;;5050938;28;20029;-79
2022/03/20 04:09:48;;;;;;;20.00;9.77;;;10.00;1.00;;;;;;5050536;28;20106;-78
2022/03/20 04:12:14;;;;;;;14.23;9.35;;;10.10;1.00;;;;;;5051454;28;20021;-79
2022/03/20 04:14:43;;;;;;;19.25;9.13;;;10.00;1.00;;;;;;5050865;28;20045;-79
2022/03/20 04:17:12;;;;;;;19.70;9.98;;;9.90;1.00;;;;;;5053459;28;20017;-79
2022/03/20 04:19:38;;;;;;;19.33;9.73;;;10.10;1.00;;;;;;5051250;28;20033;-78
2022/03/20 04:22:04;;;;;;;16.75;9.30;;;10.00;1.00;;;;;;5050245;28;20037;-78
2022/03/20 04:24:30;;;;;;;16.52;9.52;;;10.00;1.00;;;;;;5050568;28;20397;-79
2022/03/20 04:26:58;;;;;;;14.68;9.57;;;9.90;1.00;;;;;;5051143;28;20035;-78
2022/03/20 04:29:31;;;;;;;16.23;9.73;;;10.10;1.00;;;;;;5052047;28;20017;-79
2022/03/20 04:31:57;;;;;;;18.77;9.75;;;9.90;1.00;;;;;;5052391;28;20063;-79
2022/03/20 04:34:26;;;;;;;14.02;9.50;;;9.90;1.00;;;;;;5048657;28;20040;-78
2022/03/20 04:36:56;;;;;;;16.95;10.65;;;9.90;1.00;;;;;;5049115;28;20035;-79
2022/03/20 04:39:23;;;;;;;15.38;9.80;;;9.90;1.00;;;;;;5049934;28;20489;-79
2022/03/20 04:41:49;;;;;;;13.70;9.73;;;10.10;1.00;;;;;;5051248;28;20025;-80
2022/03/20 04:44:15;;;;;;;15.68;9.73;;;9.90;1.00;;;;;;5052550;28;20064;-79
2022/03/20 04:46:41;;;;;;;17.98;10.65;;;9.80;1.00;;;;;;5050321;28;20060;-78
2022/03/20 05:00:05;;;;;;;14.23;9.70;;;9.90;1.00;;;;;;5037246;28;20071;-79
2022/03/20 05:02:30;;;;;;;14.00;9.52;;;9.80;1.00;;;;;;5050672;28;20025;-79
2022/03/20 05:04:56;;;;;;;15.43;9.65;;;9.80;1.00;;;;;;5051599;28;20028;-78
2022/03/20 05:07:22;;;;;;;15.63;9.85;;;9.90;1.00;;;;;;5049502;28;20041;-79
2022/03/20 05:15:16;;;;;;;17.42;9.80;;;9.90;1.00;;;;;;5048361;28;20044;-79
2022/03/20 05:17:41;;;;;;;16.40;9.45;;;9.80;1.00;;;;;;5049755;28;20029;-79
2022/03/20 05:20:07;;;;;;;13.73;9.30;;;9.80;1.00;;;;;;5051481;28;20029;-79
2022/03/20 05:22:40;;;;;;;18.48;9.75;;;9.70;1.00;;;;;;5049231;28;20520;-79
2022/03/20 05:25:10;;;;;;;14.95;9.07;;;9.70;1.00;;;;;;5050029;28;20021;-79
2022/03/20 05:27:37;;;;;;;15.50;9.73;;;9.70;1.00;;;;;;5049797;28;20394;-78
2022/03/20 05:30:07;;;;;;;15.73;9.70;;;9.70;1.00;;;;;;5049485;28;20029;-79
2022/03/20 05:32:34;;;;;;;16.35;9.45;;;9.70;1.00;;;;;;5049277;28;20401;-79
2022/03/20 05:35:02;;;;;;;19.10;10.30;;;9.80;1.00;;;;;;5052055;28;20049;-79
2022/03/20 05:37:29;;;;;;;16.10;9.63;;;9.80;1.00;;;;;;5048761;28;20139;-79
2022/03/20 05:39:54;;;;;;;16.75;9.52;;;10.20;1.00;;;;;;5049251;28;20032;-78
2022/03/20 05:42:20;;;;;;;17.80;9.70;;;9.80;1.00;;;;;;5049785;28;20021;-79
2022/03/20 05:44:46;;;;;;;15.75;10.07;;;9.80;1.00;;;;;;5049997;28;20026;-79
2022/03/20 05:47:12;;;;;;;17.10;9.98;;;9.90;1.00;;;;;;5051519;28;20033;-79
2022/03/20 05:49:38;;;;;;;16.23;9.98;;;9.90;1.00;;;;;;5049373;28;20052;-79
2022/03/20 05:52:06;;;;;;;15.95;9.45;;;10.10;1.00;;;;;;5047512;28;20025;-79
2022/03/20 05:54:32;;;;;;;16.60;9.82;;;9.60;1.00;;;;;;5047749;28;20067;-79
2022/03/20 05:59:42;;;;;;;22.38;10.15;;;9.50;1.00;;;;;;5049343;28;20135;-78
2022/03/20 06:02:09;;;;;;;16.98;10.55;;;9.50;1.00;;;;;;5051492;28;20040;-78
2022/03/20 06:04:35;;;;;;;14.23;9.73;;;9.50;1.00;;;;;;5049063;28;20017;-78
2022/03/20 06:07:01;;;;;;;17.38;9.75;;;9.80;1.00;;;;;;5048240;28;20057;-78
2022/03/20 06:09:27;;;;;;;15.68;9.38;;;9.80;1.00;;;;;;5049223;28;20456;-78
2022/03/20 06:11:53;;;;;;;15.13;10.00;;;9.60;1.00;;;;;;5049354;28;20037;-78
2022/03/20 06:14:19;;;;;;;14.57;9.73;;;9.80;1.00;;;;;;5050804;28;20040;-79
2022/03/20 06:16:48;;;;;;;19.15;10.20;;;9.60;1.00;;;;;;5049524;28;20039;-81
2022/03/20 06:19:17;;;;;;;15.73;9.50;;;9.60;1.00;;;;;;5049291;28;20045;-81
2022/03/20 06:21:44;;;;;;;12.73;10.07;;;9.60;1.00;;;;;;5048725;28;20032;-81
2022/03/20 06:24:10;;;;;;;16.25;9.07;;;9.60;1.00;;;;;;5053034;28;20112;-81
2022/03/20 06:26:39;;;;;;;17.40;9.98;;;9.60;1.00;;;;;;5052743;28;20032;-81
2022/03/20 06:29:05;;;;;;;18.38;9.93;;;9.70;1.00;;;;;;5055652;28;20504;-81
2022/03/20 06:31:31;;;;;;;16.50;8.93;;;9.60;1.00;;;;;;5051009;28;20033;-80
2022/03/20 06:33:58;;;;;;;13.45;9.77;;;9.60;1.00;;;;;;5050527;28;20489;-80
2022/03/20 06:36:24;;;;;;;16.08;10.00;;;9.70;1.00;;;;;;5053093;28;20473;-80
2022/03/20 06:38:50;;;;;;;13.95;10.05;;;9.70;1.00;;;;;;5052711;28;20076;-80
2022/03/20 06:41:18;;;;;;;14.20;9.57;;;10.20;1.00;;;;;;5054885;28;20091;-79
2022/03/20 06:43:44;;;;;;;12.63;8.80;;;9.70;1.00;;;;;;5051719;28;20036;-80
2022/03/20 06:46:09;;;;;;;15.38;9.65;;;10.10;1.00;;;;;;5052475;28;20481;-79
2022/03/20 06:48:35;;;;;;;14.50;9.65;;;10.10;1.00;;;;;;5052015;28;20029;-80
2022/03/20 06:51:01;;;;;;;16.67;9.45;;;9.80;1.00;;;;;;5053061;28;20033;-80
2022/03/20 06:53:27;;;;;;;15.32;9.18;;;9.80;1.00;;;;;;5053481;28;20423;-80
2022/03/20 06:55:53;;;;;;;16.17;9.35;;;9.90;1.00;;;;;;5053569;28;20020;-80
2022/03/20 06:58:21;;;;;;;18.10;9.88;;;10.00;1.00;;;;;;5052218;28;20116;-80
2022/03/20 07:00:47;;;;;;;14.95;10.27;;;10.30;1.00;;;;;;5052700;28;20026;-79
2022/03/20 07:03:13;;;;;;;17.20;9.88;;;10.00;1.00;;;;;;5052147;28;20444;-79
2022/03/20 07:05:39;;;;;;;17.23;10.77;;;10.10;1.00;;;;;;5052537;28;20033;-79
2022/03/20 07:08:06;;;;;;;13.88;9.93;;;10.10;1.00;;;;;;5054378;28;20100;-80
2022/03/20 07:10:33;;;;;;;18.52;9.70;;;10.10;1.00;;;;;;5050494;28;20128;-79
2022/03/20 07:15:45;;;;;;;16.55;10.23;;;10.30;1.00;;;;;;5050349;28;20044;-89
2022/03/20 07:18:16;;;;;;;15.00;9.13;;;10.40;1.00;;;;;;5051709;28;20116;-89
2022/03/20 07:20:44;;;;;;;17.13;10.30;;;10.40;1.00;;;;;;5051050;28;20493;-84
2022/03/20 07:23:12;;;;;;;14.90;8.82;;;10.50;1.00;;;;;;5054184;28;20033;-84
2022/03/20 07:31:10;;;;;;;16.88;10.02;;;10.90;1.00;;;;;;5051625;28;20564;-84
2022/03/20 07:33:36;;;;;;;13.70;9.30;;;10.70;1.00;;;;;;5050512;28;20037;-84
2022/03/20 07:36:03;;;;;;;13.52;9.35;;;10.80;1.00;;;;;;5051616;28;20123;-83
2022/03/20 07:38:29;;;;;;;12.98;9.63;;;10.70;1.00;;;;;;5052137;28;20531;-84
2022/03/20 07:40:55;;;;;;;17.25;10.25;;;10.70;1.00;;;;;;5053014;28;20037;-84
2022/03/20 07:43:21;;;;;;;18.30;11.10;;;10.80;1.00;;;;;;5051386;28;20078;-84
2022/03/20 07:45:47;;;;;;;17.33;10.52;;;10.90;1.00;;;;;;5051530;28;20029;-84
2022/03/20 07:48:13;;;;;;;15.05;10.10;;;10.90;1.00;;;;;;5049707;28;20580;-84
2022/03/20 07:50:40;;;;;;;14.73;9.45;;;11.00;1.00;;;;;;5051663;28;20435;-84
2022/03/20 07:53:06;;;;;;;14.55;9.85;;;11.10;1.00;;;;;;5052321;28;20202;-83
2022/03/20 07:55:34;;;;;;;15.52;10.15;;;11.20;1.00;;;;;;5051169;28;20037;-84
2022/03/20 07:58:00;;;;;;;16.13;9.65;;;11.20;1.00;;;;;;5050837;28;20021;-84
2022/03/20 08:00:26;;;;;;;14.80;9.50;;;11.30;1.00;;;;;;5051074;28;20112;-84
2022/03/20 08:02:52;;;;;;;17.27;10.50;;;11.30;1.00;;;;;;5051225;28;20117;-83
2022/03/20 08:05:18;;;;;;;17.30;9.73;;;11.30;1.00;;;;;;5053572;28;20032;-84
2022/03/20 08:07:44;;;;;;;13.70;10.30;;;11.50;1.00;;;;;;5049981;28;20385;-84
2022/03/20 08:10:12;;;;;;;14.50;9.93;;;11.80;1.00;;;;;;5050934;28;20032;-84
2022/03/20 08:12:38;;;;;;;16.17;10.00;;;11.80;1.00;;;;;;5050873;28;20127;-84
2022/03/20 08:15:05;;;;;;;12.23;9.57;;;11.80;1.00;;;;;;5051293;28;20044;-84
2022/03/20 08:17:32;;;;;;;17.15;10.52;;;12.00;1.00;;;;;;5050776;28;20029;-84
2022/03/20 08:19:58;;;;;;;15.68;9.93;;;12.10;1.00;;;;;;5052580;28;20107;-84
2022/03/20 08:22:26;;;;;;;17.48;9.52;;;12.30;1.00;;;;;;5050681;28;20125;-84
2022/03/20 08:24:52;;;;;;;18.23;10.10;;;12.30;1.00;;;;;;5051476;28;20227;-84
2022/03/20 08:27:20;;;;;;;13.20;9.88;;;12.10;1.00;;;;;;5049190;28;20476;-84
2022/03/20 08:29:46;;;;;;;15.55;10.27;;;12.10;1.00;;;;;;5049827;28;20067;-84
2022/03/20 08:32:12;;;;;;;16.48;9.82;;;12.30;1.00;;;;;;5051733;28;20482;-84
2022/03/20 08:34:38;;;;;;;17.60;9.98;;;12.30;1.00;;;;;;5050393;28;20124;-84
2022/03/20 08:37:04;;;;;;;11.55;8.90;;;12.40;1.00;;;;;;5050867;28;20393;-84
2022/03/20 08:39:29;;;;;;;16.25;10.75;;;12.30;1.00;;;;;;5050253;28;20052;-84
2022/03/20 08:41:55;;;;;;;15.80;10.70;;;12.40;1.00;;;;;;5050422;28;20033;-84
2022/03/20 08:44:25;;;;;;;15.77;10.13;;;12.50;1.00;;;;;;5052598;28;20032;-84
2022/03/20 08:46:52;;;;;;;13.98;9.57;;;12.60;1.00;;;;;;5050904;28;20031;-84
2022/03/20 08:49:17;;;;;;;15.90;9.50;;;12.80;1.00;;;;;;5050186;28;20032;-84
2022/03/20 08:51:43;;;;;;;14.90;9.55;;;12.70;1.00;;;;;;5050466;28;20079;-84
2022/03/20 08:54:09;;;;;;;15.70;10.70;;;12.70;1.00;;;;;;5050422;28;20045;-84
2022/03/20 08:56:35;;;;;;;16.00;10.10;;;12.90;1.00;;;;;;5048736;28;20033;-84
2022/03/20 08:59:00;;;;;;;11.82;9.90;;;12.90;1.00;;;;;;5051792;28;20501;-84
2022/03/20 09:01:26;;;;;;;15.32;10.23;;;13.30;1.00;;;;;;5050195;28;20036;-85
2022/03/20 09:03:52;;;;;;;13.80;10.55;;;13.50;1.00;;;;;;5050402;28;20389;-84
2022/03/20 09:06:20;;;;;;;15.05;10.15;;;13.90;1.00;;;;;;5048284;28;20097;-85
2022/03/20 09:08:46;;;;;;;14.75;9.73;;;14.00;1.00;;;;;;5049312;28;20056;-84
2022/03/20 09:11:12;;;;;;;15.20;10.45;;;13.80;1.00;;;;;;5051723;28;20119;-84
2022/03/20 09:13:38;;;;;;;14.20;9.75;;;13.80;1.00;;;;;;5049421;28;20128;-84
2022/03/20 09:19:00;;;;;;;14.93;10.13;;;13.90;1.00;;;;;;5050727;28;20063;-84
2022/03/20 09:21:33;;;;;;;16.50;10.20;;;13.90;1.00;;;;;;5050011;28;20040;-84
2022/03/20 09:24:00;;;;;;;14.77;10.05;;;14.30;1.00;;;;;;5049660;28;20044;-84
2022/03/20 09:26:26;;;;;;;15.93;10.43;;;14.40;1.00;;;;;;5050913;28;20378;-83
2022/03/20 09:28:52;;;;;;;14.32;10.50;;;14.70;1.00;;;;;;5050631;28;20060;-84
2022/03/20 09:31:19;;;;;;;14.63;10.32;;;15.00;1.00;;;;;;5049416;28;20035;-84
2022/03/20 09:33:45;;;;;;;14.13;10.32;;;15.00;1.00;;;;;;5060469;28;20037;-84
2022/03/20 09:36:11;;;;;;;15.80;10.70;;;15.90;1.00;;;;;;5049587;28;20040;-84
2022/03/20 09:38:37;;;;;;;14.88;10.75;;;16.20;1.00;;;;;;5049974;28;20017;-84
2022/03/20 09:41:07;;;;;;;14.63;10.45;;;15.50;1.00;;;;;;5051433;28;20097;-84
2022/03/20 09:43:34;;;;;;;19.50;10.55;;;16.40;1.00;;;;;;5048936;28;20507;-84
2022/03/20 09:46:00;;;;;;;14.68;10.98;;;16.80;1.00;;;;;;5047908;28;20029;-84
2022/03/20 09:48:30;;;;;;;13.70;10.43;;;17.10;1.00;;;;;;5048287;28;20025;-84
2022/03/20 09:51:00;;;;;;;14.60;11.10;;;17.50;1.00;;;;;;5049355;28;20363;-84
2022/03/20 09:53:27;;;;;;;12.52;10.52;;;18.00;1.00;;;;;;5050306;28;20032;-85
2022/03/20 09:55:56;;;;;;;16.02;10.98;;;17.80;1.00;;;;;;5050611;28;20047;-85
2022/03/20 09:58:27;;;;;;;17.13;11.23;;;17.50;1.00;;;;;;5048769;28;20028;-85
2022/03/20 10:00:54;;;;;;;13.45;10.80;;;17.60;1.00;;;;;;5049250;28;20083;-84
2022/03/20 10:03:22;;;;;;;12.13;10.80;;;17.40;1.00;;;;;;5049258;28;20127;-85
2022/03/20 10:06:16;;;;;;;15.90;10.80;;;17.40;1.00;;;;;;5033389;28;20045;-85
2022/03/20 10:09:12;;;;;;;14.82;11.18;;;16.60;1.00;;;;;;5048455;28;20028;-84
2022/03/20 10:11:49;;;;;;;14.75;10.63;;;16.80;1.00;;;;;;5027078;28;20038;-85
2022/03/20 10:14:23;;;;;;;15.10;10.88;;;17.00;1.00;;;;;;5046679;28;20427;-84
2022/03/20 10:17:17;;;;;;;13.63;11.75;;;16.80;1.00;;;;;;5048449;28;20440;-84
2022/03/20 10:19:42;;;;;;;16.10;10.57;;;17.40;1.00;;;;;;5049796;28;20473;-85
2022/03/20 10:22:10;;;;;;;13.80;11.20;;;17.60;1.00;;;;;;5048830;28;20032;-85
2022/03/20 10:24:47;;;;;;;19.92;11.07;;;17.80;1.00;;;;;;5047494;28;20481;-84
2022/03/20 10:27:14;;;;;;;14.75;10.57;;;17.40;1.00;;;;;;5047184;28;20025;-85
2022/03/20 10:29:49;;;;;;;13.48;11.07;;;17.80;1.00;;;;;;5049050;28;20398;-85
2022/03/20 10:32:14;;;;;;;13.43;10.30;;;18.60;1.00;;;;;;5051325;28;20073;-85
2022/03/20 10:34:48;;;;;;;15.27;10.68;;;19.40;1.00;;;;;;5048476;28;20525;-85
2022/03/20 10:37:15;;;;;;;15.40;11.57;;;19.90;1.00;;;;;;5049139;28;20028;-85
2022/03/20 10:39:42;;;;;;;14.55;10.52;;;21.30;1.00;;;;;;5049224;28;20385;-85
2022/03/20 10:42:12;;;;;;;16.33;10.90;;;22.40;1.00;;;;;;5048767;28;20227;-85
2022/03/20 10:44:39;;;;;;;14.13;11.07;;;23.40;1.00;;;;;;5048983;28;20485;-85
2022/03/20 10:47:12;;;;;;;16.88;10.75;;;22.10;1.00;;;;;;5050736;28;20504;-85
2022/03/20 10:49:39;;;;;;;16.13;10.82;;;20.80;1.00;;;;;;5048647;28;20446;-85
2022/03/20 10:52:10;;;;;;;14.25;11.73;;;20.90;1.00;;;;;;5048365;28;20083;-85
2022/03/20 10:54:39;;;;;;;14.32;11.75;;;20.80;1.00;;;;;;5048570;28;20516;-85
2022/03/20 10:57:08;;;;;;;14.60;10.93;;;20.70;1.00;;;;;;5048429;28;20040;-85
2022/03/20 10:59:34;;;;;;;14.43;11.07;;;21.20;1.00;;;;;;5048761;28;20033;-85
2022/03/20 11:02:02;;;;;;;12.82;10.98;;;21.90;1.00;;;;;;5048965;28;20503;-85
2022/03/20 11:04:28;;;;;;;15.27;11.63;;;22.50;1.00;;;;;;5047050;28;20033;-85
2022/03/20 11:06:54;;;;;;;14.52;11.60;;;21.60;1.00;;;;;;5047169;28;20013;-85
2022/03/20 11:09:21;;;;;;;12.85;11.05;;;21.50;1.00;;;;;;5050068;28;20037;-85
2022/03/20 11:11:51;;;;;;;14.43;11.45;;;20.70;1.00;;;;;;5051962;28;20033;-85
2022/03/20 11:14:22;;;;;;;16.92;11.38;;;19.80;1.00;;;;;;5050419;28;20489;-85
2022/03/20 11:16:52;;;;;;;14.60;10.85;;;19.30;1.00;;;;;;5051099;28;20036;-85
2022/03/20 11:19:23;;;;;;;15.35;11.90;;;19.70;1.00;;;;;;5051937;28;20550;-85
2022/03/20 11:21:52;;;;;;;13.60;11.45;;;19.90;1.00;;;;;;5052185;28;20374;-85
2022/03/20 11:24:18;;;;;;;13.88;10.93;;;20.40;1.00;;;;;;5051518;28;20021;-85
2022/03/20 11:26:52;;;;;;;15.98;11.40;;;21.50;1.00;;;;;;5052186;28;20119;-85
2022/03/20 11:29:19;;;;;;;13.95;11.02;;;22.10;1.00;;;;;;5049929;28;20485;-85
2022/03/20 11:31:46;;;;;;;14.85;11.85;;;22.10;1.00;;;;;;5050975;28;20041;-85
2022/03/20 11:34:12;;;;;;;13.32;11.57;;;21.00;1.00;;;;;;5051414;28;20037;-85
2022/03/20 11:37:04;;;;;;;14.30;11.80;;;21.50;1.00;;;;;;5051989;28;20032;-85
2022/03/20 11:39:30;;;;;;;13.07;11.65;;;21.20;1.00;;;;;;5051203;28;20025;-85
2022/03/20 11:42:28;;;;;;;12.77;11.27;;;19.70;1.00;;;;;;5050085;28;20367;-85
2022/03/20 11:44:59;;;;;;;14.05;12.13;;;19.30;1.00;;;;;;5035054;28;20025;-85
2022/03/20 11:47:29;;;;;;;12.85;11.50;;;18.20;1.00;;;;;;5052718;28;20025;-85
2022/03/20 11:50:10;;;;;;;14.10;11.43;;;17.80;1.00;;;;;;5052851;28;20032;-85
2022/03/20 11:53:02;;;;;;;12.27;10.98;;;18.00;1.00;;;;;;5051342;28;20110;-85
2022/03/20 11:55:32;;;;;;;14.20;12.15;;;18.20;1.00;;;;;;5051059;28;20468;-85
2022/03/20 11:58:22;;;;;;;15.05;11.80;;;18.30;1.00;;;;;;5051163;28;20052;-85
2022/03/20 12:01:03;;;;;;;16.27;11.60;;;18.10;1.00;;;;;;5045246;28;20040;-84
2022/03/20 12:04:00;;;;;;;14.35;11.55;;;17.80;1.00;;;;;;5050953;28;20025;-84
2022/03/20 12:07:01;;;;;;;16.15;11.48;;;17.00;1.00;;;;;;5051627;28;20111;-84
2022/03/20 12:10:13;;;;;;;24.33;11.70;;;16.60;1.00;;;;;;5050518;28;20036;-85
2022/03/20 12:13:04;;;;;;;13.35;11.77;;;16.40;1.00;;;;;;5049232;28;20025;-84
2022/03/20 12:15:31;;;;;;;17.90;12.18;;;16.50;1.00;;;;;;5051234;28;20045;-84
2022/03/20 12:18:08;;;;;;;13.70;10.90;;;16.00;1.00;;;;;;5051046;28;20068;-84
2022/03/20 12:20:50;;;;;;;19.52;12.45;;;15.80;1.00;;;;;;5051618;28;20025;-85
2022/03/20 12:23:40;;;;;;;14.73;11.70;;;15.70;1.00;;;;;;5049542;28;20033;-84
2022/03/20 12:26:33;;;;;;;14.77;12.25;;;15.90;1.00;;;;;;5051889;28;20366;-84
2022/03/20 12:29:32;;;;;;;15.80;11.93;;;16.00;1.00;;;;;;5052582;28;20033;-85
2022/03/20 12:32:06;;;;;;;14.95;12.10;;;16.00;1.00;;;;;;5052477;28;20128;-85
2022/03/20 12:34:33;;;;;;;14.07;11.57;;;15.90;1.00;;;;;;5050442;28;20041;-84
2022/03/20 12:37:33;;;;;;;16.45;11.10;;;15.90;1.00;;;;;;5050314;28;20039;-84
2022/03/20 12:40:09;;;;;;;19.00;11.95;;;16.00;1.00;;;;;;5050720;28;20040;-84
2022/03/20 12:42:39;;;;;;;16.08;12.18;;;16.10;1.00;;;;;;5050408;28;20369;-84
2022/03/20 12:45:08;;;;;;;16.58;11.85;;;15.90;1.00;;;;;;5050570;28;20029;-85
2022/03/20 12:47:34;;;;;;;17.30;11.68;;;15.80;1.00;;;;;;5050595;28;20497;-85
2022/03/20 12:50:09;;;;;;;16.67;11.73;;;15.60;1.00;;;;;;5050288;28;20025;-84
2022/03/20 12:52:36;;;;;;;16.92;12.40;;;15.50;1.00;;;;;;5049649;28;20040;-84
2022/03/20 12:55:08;;;;;;;16.80;11.25;;;15.50;1.00;;;;;;5050522;28;20111;-84
2022/03/20 12:57:41;;;;;;;14.48;10.90;;;15.40;1.00;;;;;;5050657;28;20028;-84
2022/03/20 13:00:15;;;;;;;13.73;11.35;;;15.50;1.00;;;;;;5048575;28;20041;-84
2022/03/20 13:03:07;;;;;;;15.88;10.52;;;15.40;1.00;;;;;;5050032;28;20032;-84
2022/03/20 13:06:00;;;;;;;15.13;11.27;;;15.20;1.00;;;;;;5048273;28;20027;-84
2022/03/20 13:08:30;;;;;;;15.73;11.32;;;15.30;1.00;;;;;;5047679;28;20029;-84
2022/03/20 13:11:03;;;;;;;14.65;11.63;;;15.40;1.00;;;;;;5051403;28;20040;-84
2022/03/20 13:13:36;;;;;;;17.52;11.27;;;15.40;1.00;;;;;;5050180;28;20021;-84
2022/03/20 13:16:04;;;;;;;15.50;11.00;;;15.40;1.00;;;;;;5049587;28;20044;-84
2022/03/20 13:18:31;;;;;;;15.68;11.27;;;15.60;1.00;;;;;;5049830;28;20009;-85
2022/03/20 13:21:07;;;;;;;14.40;11.15;;;15.60;1.00;;;;;;5049740;28;20025;-84
2022/03/20 13:23:33;;;;;;;15.65;10.48;;;15.70;1.00;;;;;;5050609;28;20028;-84
2022/03/20 13:26:00;;;;;;;14.02;11.32;;;15.70;1.00;;;;;;5051825;28;20029;-84
2022/03/20 13:28:31;;;;;;;15.57;11.65;;;15.70;1.00;;;;;;5049820;28;20021;-84